Terminal Aerodrome Forecast
Issued by NWS

Home | Current Version | Previous Version | Graphics & Text | Print | Product List | Glossary On
Versions: 1 2 3 4 5 6 7 8 9 10 11 12 13 14 15 16 17 18
816
FTUS43 KGRB 060852 AAA
TAFAUW
TAF AMD
KAUW 060852Z 0609/0706 23006KT 6SM BR OVC015
      TEMPO 0609/0611 4SM -SN BR OVC009
     FM061400 24008KT P6SM BKN020
     FM070000 18006KT P6SM BKN020=

USA.gov is the U.S. government's official web portal to all federal, state and local government web resources and services.